sensor_id;sensor_type;location;lat;lon;timestamp;pressure;altitude;pressure_sealevel;temperature;humidity
64086;BME280;50333;47.436;21.390;2022-11-15T00:00:48;101153.47;;;6.83;67.36
64086;BME280;50333;47.436;21.390;2022-11-15T00:03:36;101156.94;;;6.76;67.29
64086;BME280;50333;47.436;21.390;2022-11-15T00:06:42;101157.50;;;6.78;66.94
64086;BME280;50333;47.436;21.390;2022-11-15T00:09:49;101155.47;;;6.80;66.91
64086;BME280;50333;47.436;21.390;2022-11-15T00:12:55;101151.25;;;6.68;67.10
64086;BME280;50333;47.436;21.390;2022-11-15T00:15:42;101151.47;;;6.85;66.53
64086;BME280;50333;47.436;21.390;2022-11-15T00:18:48;101145.75;;;6.57;66.65
64086;BME280;50333;47.436;21.390;2022-11-15T00:21:55;101152.06;;;6.43;67.59
64086;BME280;50333;47.436;21.390;2022-11-15T00:25:01;101148.59;;;6.74;66.50
64086;BME280;50333;47.436;21.390;2022-11-15T00:28:08;101147.56;;;6.57;66.12
64086;BME280;50333;47.436;21.390;2022-11-15T00:31:01;101150.00;;;6.70;66.25
64086;BME280;50333;47.436;21.390;2022-11-15T00:33:48;101142.09;;;6.84;65.46
64086;BME280;50333;47.436;21.390;2022-11-15T00:36:54;101149.00;;;6.71;65.64
64086;BME280;50333;47.436;21.390;2022-11-15T00:40:00;101137.78;;;6.77;65.38
64086;BME280;50333;47.436;21.390;2022-11-15T00:43:06;101134.03;;;6.55;65.67
64086;BME280;50333;47.436;21.390;2022-11-15T00:46:12;101131.06;;;6.51;65.78
64086;BME280;50333;47.436;21.390;2022-11-15T00:49:21;101133.53;;;6.65;65.49
64086;BME280;50333;47.436;21.390;2022-11-15T00:52:27;101132.37;;;6.60;65.34
64086;BME280;50333;47.436;21.390;2022-11-15T00:55:16;101120.12;;;6.49;65.66
64086;BME280;50333;47.436;21.390;2022-11-15T00:58:05;101113.44;;;6.41;65.82
64086;BME280;50333;47.436;21.390;2022-11-15T01:01:13;101104.91;;;6.16;66.69
64086;BME280;50333;47.436;21.390;2022-11-15T01:04:21;101103.50;;;6.38;66.24
64086;BME280;50333;47.436;21.390;2022-11-15T01:07:29;101114.28;;;6.35;66.40
64086;BME280;50333;47.436;21.390;2022-11-15T01:10:36;101111.81;;;6.22;66.51
64086;BME280;50333;47.436;21.390;2022-11-15T01:13:43;101100.84;;;6.45;65.87
64086;BME280;50333;47.436;21.390;2022-11-15T01:16:49;101097.66;;;6.25;66.13
64086;BME280;50333;47.436;21.390;2022-11-15T01:19:55;101096.00;;;6.30;66.23
64086;BME280;50333;47.436;21.390;2022-11-15T01:23:02;101101.53;;;6.34;66.29
64086;BME280;50333;47.436;21.390;2022-11-15T01:26:12;101099.91;;;6.39;66.10
64086;BME280;50333;47.436;21.390;2022-11-15T01:28:59;101087.09;;;6.45;65.65
64086;BME280;50333;47.436;21.390;2022-11-15T01:31:48;101086.16;;;6.39;65.61
64086;BME280;50333;47.436;21.390;2022-11-15T01:34:35;101087.34;;;6.18;66.12
64086;BME280;50333;47.436;21.390;2022-11-15T01:37:29;101089.59;;;6.33;65.97
64086;BME280;50333;47.436;21.390;2022-11-15T01:40:16;101082.62;;;6.33;65.89
64086;BME280;50333;47.436;21.390;2022-11-15T01:43:25;101074.13;;;6.26;66.19
64086;BME280;50333;47.436;21.390;2022-11-15T01:49:39;101074.59;;;5.91;66.93
64086;BME280;50333;47.436;21.390;2022-11-15T01:52:30;101069.72;;;6.27;65.76
64086;BME280;50333;47.436;21.390;2022-11-15T01:55:23;101069.81;;;6.38;65.36
64086;BME280;50333;47.436;21.390;2022-11-15T01:58:11;101064.19;;;6.23;65.39
64086;BME280;50333;47.436;21.390;2022-11-15T02:01:01;101064.37;;;6.47;64.75
64086;BME280;50333;47.436;21.390;2022-11-15T02:04:17;101065.62;;;6.19;65.43
64086;BME280;50333;47.436;21.390;2022-11-15T02:07:25;101065.22;;;6.40;65.06
64086;BME280;50333;47.436;21.390;2022-11-15T02:10:32;101063.66;;;6.39;64.81
64086;BME280;50333;47.436;21.390;2022-11-15T02:13:19;101064.41;;;6.21;65.22
64086;BME280;50333;47.436;21.390;2022-11-15T02:22:51;101066.16;;;6.02;65.22
64086;BME280;50333;47.436;21.390;2022-11-15T02:32:35;101068.50;;;6.11;64.97
64086;BME280;50333;47.436;21.390;2022-11-15T02:35:29;101066.91;;;5.84;65.45
64086;BME280;50333;47.436;21.390;2022-11-15T02:41:54;101060.06;;;5.97;65.34
64086;BME280;50333;47.436;21.390;2022-11-15T02:45:06;101061.66;;;5.91;65.37
64086;BME280;50333;47.436;21.390;2022-11-15T02:48:15;101065.84;;;5.92;65.53
64086;BME280;50333;47.436;21.390;2022-11-15T02:51:04;101065.22;;;5.97;65.14
64086;BME280;50333;47.436;21.390;2022-11-15T02:54:17;101064.59;;;6.01;64.34
64086;BME280;50333;47.436;21.390;2022-11-15T02:57:56;101059.19;;;5.78;64.83
64086;BME280;50333;47.436;21.390;2022-11-15T03:00:59;101063.25;;;5.92;64.39
64086;BME280;50333;47.436;21.390;2022-11-15T03:07:15;101066.63;;;5.93;64.39
64086;BME280;50333;47.436;21.390;2022-11-15T03:10:09;101065.22;;;5.72;64.25
64086;BME280;50333;47.436;21.390;2022-11-15T03:19:56;101055.47;;;5.67;65.03
64086;BME280;50333;47.436;21.390;2022-11-15T03:23:08;101049.16;;;5.63;65.15
64086;BME280;50333;47.436;21.390;2022-11-15T03:25:57;101058.31;;;5.59;65.44
64086;BME280;50333;47.436;21.390;2022-11-15T03:29:29;101056.59;;;5.78;64.98
64086;BME280;50333;47.436;21.390;2022-11-15T03:32:42;101054.69;;;5.66;64.73
64086;BME280;50333;47.436;21.390;2022-11-15T03:35:34;101046.72;;;5.68;64.91
64086;BME280;50333;47.436;21.390;2022-11-15T03:38:42;101049.47;;;5.73;64.68
64086;BME280;50333;47.436;21.390;2022-11-15T03:42:36;101036.94;;;5.45;65.13
64086;BME280;50333;47.436;21.390;2022-11-15T03:45:54;101046.44;;;5.51;65.29
64086;BME280;50333;47.436;21.390;2022-11-15T03:49:11;101044.22;;;5.55;64.84
64086;BME280;50333;47.436;21.390;2022-11-15T03:52:20;101045.50;;;5.71;64.46
64086;BME280;50333;47.436;21.390;2022-11-15T03:55:28;101040.28;;;5.52;64.84
64086;BME280;50333;47.436;21.390;2022-11-15T03:58:34;101044.91;;;5.43;65.25
64086;BME280;50333;47.436;21.390;2022-11-15T04:01:20;101038.06;;;5.56;65.08
64086;BME280;50333;47.436;21.390;2022-11-15T04:04:06;101042.06;;;5.52;64.90
64086;BME280;50333;47.436;21.390;2022-11-15T04:07:12;101037.25;;;5.55;64.85
64086;BME280;50333;47.436;21.390;2022-11-15T04:10:19;101026.75;;;5.18;65.76
64086;BME280;50333;47.436;21.390;2022-11-15T04:13:26;101025.59;;;5.14;66.21
64086;BME280;50333;47.436;21.390;2022-11-15T04:16:32;101025.84;;;5.06;66.38
64086;BME280;50333;47.436;21.390;2022-11-15T04:19:38;101017.75;;;4.96;66.79
64086;BME280;50333;47.436;21.390;2022-11-15T04:22:43;101018.47;;;4.64;68.13
64086;BME280;50333;47.436;21.390;2022-11-15T04:26:17;101019.22;;;5.17;66.69
64086;BME280;50333;47.436;21.390;2022-11-15T04:29:24;101015.81;;;5.48;65.46
64086;BME280;50333;47.436;21.390;2022-11-15T04:32:42;101013.44;;;5.46;65.54
64086;BME280;50333;47.436;21.390;2022-11-15T04:35:30;101012.87;;;5.44;65.43
64086;BME280;50333;47.436;21.390;2022-11-15T04:38:17;101016.03;;;5.46;65.39
64086;BME280;50333;47.436;21.390;2022-11-15T04:41:23;101014.34;;;5.34;65.73
64086;BME280;50333;47.436;21.390;2022-11-15T04:44:10;101008.75;;;5.37;65.67
64086;BME280;50333;47.436;21.390;2022-11-15T04:46:56;101007.38;;;5.34;65.46
64086;BME280;50333;47.436;21.390;2022-11-15T04:50:03;101001.72;;;4.80;67.00
64086;BME280;50333;47.436;21.390;2022-11-15T04:53:09;101000.38;;;4.71;68.06
64086;BME280;50333;47.436;21.390;2022-11-15T04:56:15;101012.00;;;5.25;66.41
64086;BME280;50333;47.436;21.390;2022-11-15T04:59:01;101002.81;;;4.52;67.87
64086;BME280;50333;47.436;21.390;2022-11-15T05:02:09;100996.03;;;4.65;69.15
64086;BME280;50333;47.436;21.390;2022-11-15T05:05:15;101007.19;;;5.04;67.75
64086;BME280;50333;47.436;21.390;2022-11-15T05:08:22;101008.28;;;5.46;66.27
64086;BME280;50333;47.436;21.390;2022-11-15T05:11:28;101007.50;;;5.46;66.36
64086;BME280;50333;47.436;21.390;2022-11-15T05:14:34;101001.50;;;5.52;66.20
64086;BME280;50333;47.436;21.390;2022-11-15T05:17:21;100995.72;;;5.25;66.97
64086;BME280;50333;47.436;21.390;2022-11-15T05:20:13;100988.50;;;5.34;66.68
64086;BME280;50333;47.436;21.390;2022-11-15T05:23:00;100987.50;;;5.35;67.16
64086;BME280;50333;47.436;21.390;2022-11-15T05:26:07;100986.28;;;5.05;68.02
64086;BME280;50333;47.436;21.390;2022-11-15T05:28:57;100988.16;;;5.23;67.65
64086;BME280;50333;47.436;21.390;2022-11-15T05:31:43;100992.81;;;5.40;67.30
64086;BME280;50333;47.436;21.390;2022-11-15T05:34:30;100993.56;;;4.83;68.85
64086;BME280;50333;47.436;21.390;2022-11-15T05:37:17;100982.66;;;5.13;68.50
64086;BME280;50333;47.436;21.390;2022-11-15T05:40:18;100985.13;;;5.33;67.56
64086;BME280;50333;47.436;21.390;2022-11-15T05:43:04;100989.16;;;5.22;68.59
64086;BME280;50333;47.436;21.390;2022-11-15T05:45:51;100979.50;;;5.36;67.94
64086;BME280;50333;47.436;21.390;2022-11-15T05:48:41;100984.31;;;5.01;69.01
64086;BME280;50333;47.436;21.390;2022-11-15T05:51:30;100987.53;;;5.53;67.21
64086;BME280;50333;47.436;21.390;2022-11-15T05:54:17;100992.06;;;5.33;68.31
64086;BME280;50333;47.436;21.390;2022-11-15T05:57:04;100991.09;;;5.02;69.11
64086;BME280;50333;47.436;21.390;2022-11-15T05:59:51;100987.50;;;5.03;69.76
64086;BME280;50333;47.436;21.390;2022-11-15T06:02:38;100977.50;;;5.63;67.49
64086;BME280;50333;47.436;21.390;2022-11-15T06:05:25;100981.34;;;5.29;68.97
64086;BME280;50333;47.436;21.390;2022-11-15T06:08:11;100981.59;;;5.53;68.58
64086;BME280;50333;47.436;21.390;2022-11-15T06:11:04;100987.28;;;5.61;67.84
64086;BME280;50333;47.436;21.390;2022-11-15T06:14:16;100985.78;;;5.72;67.54
64086;BME280;50333;47.436;21.390;2022-11-15T06:17:26;100993.94;;;5.51;68.60
64086;BME280;50333;47.436;21.390;2022-11-15T06:20:32;100987.25;;;5.86;67.30
64086;BME280;50333;47.436;21.390;2022-11-15T06:23:19;100996.03;;;5.85;67.80
64086;BME280;50333;47.436;21.390;2022-11-15T06:26:25;100992.22;;;6.13;66.91
64086;BME280;50333;47.436;21.390;2022-11-15T06:29:11;101004.72;;;6.35;66.25
64086;BME280;50333;47.436;21.390;2022-11-15T06:31:57;100997.94;;;6.34;66.54
64086;BME280;50333;47.436;21.390;2022-11-15T06:34:49;100998.56;;;5.92;67.37
64086;BME280;50333;47.436;21.390;2022-11-15T06:37:35;100999.25;;;5.81;67.59
64086;BME280;50333;47.436;21.390;2022-11-15T06:40:21;101009.91;;;5.91;67.38
64086;BME280;50333;47.436;21.390;2022-11-15T06:43:08;101009.69;;;6.36;66.05
64086;BME280;50333;47.436;21.390;2022-11-15T06:45:54;100999.06;;;6.45;66.10
64086;BME280;50333;47.436;21.390;2022-11-15T06:48:40;101006.66;;;6.21;66.12
64086;BME280;50333;47.436;21.390;2022-11-15T06:51:27;100991.66;;;6.60;65.57
64086;BME280;50333;47.436;21.390;2022-11-15T06:54:14;100987.50;;;6.59;64.64
64086;BME280;50333;47.436;21.390;2022-11-15T06:57:01;100998.75;;;6.34;66.11
64086;BME280;50333;47.436;21.390;2022-11-15T06:59:47;100996.06;;;6.59;65.73
64086;BME280;50333;47.436;21.390;2022-11-15T07:02:34;100985.28;;;6.63;65.70
64086;BME280;50333;47.436;21.390;2022-11-15T07:05:22;100991.62;;;6.48;66.12
64086;BME280;50333;47.436;21.390;2022-11-15T07:08:09;100989.97;;;6.54;66.24
64086;BME280;50333;47.436;21.390;2022-11-15T07:10:59;100994.16;;;6.36;66.90
64086;BME280;50333;47.436;21.390;2022-11-15T07:13:47;100989.03;;;6.11;67.82
64086;BME280;50333;47.436;21.390;2022-11-15T07:16:33;100989.69;;;6.62;66.58
64086;BME280;50333;47.436;21.390;2022-11-15T07:19:19;101001.59;;;6.82;65.71
64086;BME280;50333;47.436;21.390;2022-11-15T07:22:05;100993.94;;;6.87;65.65
64086;BME280;50333;47.436;21.390;2022-11-15T07:24:51;100995.28;;;6.59;66.06
64086;BME280;50333;47.436;21.390;2022-11-15T07:27:38;100988.63;;;6.82;66.16
64086;BME280;50333;47.436;21.390;2022-11-15T07:30:26;100990.03;;;6.96;65.43
64086;BME280;50333;47.436;21.390;2022-11-15T07:33:13;100984.97;;;7.01;65.69
64086;BME280;50333;47.436;21.390;2022-11-15T07:36:00;100987.22;;;6.67;66.88
64086;BME280;50333;47.436;21.390;2022-11-15T07:38:47;100972.37;;;6.74;66.87
64086;BME280;50333;47.436;21.390;2022-11-15T07:41:34;100975.41;;;7.13;66.04
64086;BME280;50333;47.436;21.390;2022-11-15T07:44:20;100978.00;;;6.71;68.16
64086;BME280;50333;47.436;21.390;2022-11-15T07:47:06;100976.66;;;7.11;66.86
64086;BME280;50333;47.436;21.390;2022-11-15T07:49:56;100974.31;;;7.21;66.33
64086;BME280;50333;47.436;21.390;2022-11-15T07:52:42;100961.50;;;6.96;67.21
64086;BME280;50333;47.436;21.390;2022-11-15T07:55:28;100961.00;;;7.17;66.69
64086;BME280;50333;47.436;21.390;2022-11-15T07:58:15;100955.09;;;7.10;66.53
64086;BME280;50333;47.436;21.390;2022-11-15T08:01:03;100952.69;;;7.39;66.21
64086;BME280;50333;47.436;21.390;2022-11-15T08:03:50;100959.09;;;7.25;65.63
64086;BME280;50333;47.436;21.390;2022-11-15T08:06:36;100953.66;;;7.14;65.92
64086;BME280;50333;47.436;21.390;2022-11-15T08:09:22;100953.13;;;7.36;65.69
64086;BME280;50333;47.436;21.390;2022-11-15T08:12:08;100957.81;;;6.25;68.30
64086;BME280;50333;47.436;21.390;2022-11-15T08:14:55;100940.69;;;7.03;67.24
64086;BME280;50333;47.436;21.390;2022-11-15T08:17:42;100934.44;;;7.58;66.04
64086;BME280;50333;47.436;21.390;2022-11-15T08:20:29;100948.41;;;7.57;65.20
64086;BME280;50333;47.436;21.390;2022-11-15T08:23:16;100952.84;;;7.02;66.98
64086;BME280;50333;47.436;21.390;2022-11-15T08:26:03;100939.94;;;7.49;66.44
64086;BME280;50333;47.436;21.390;2022-11-15T08:28:51;100942.28;;;7.63;65.72
64086;BME280;50333;47.436;21.390;2022-11-15T08:31:37;100942.31;;;7.39;66.38
64086;BME280;50333;47.436;21.390;2022-11-15T08:34:23;100939.59;;;7.81;65.77
64086;BME280;50333;47.436;21.390;2022-11-15T08:37:10;100930.81;;;7.70;66.33
64086;BME280;50333;47.436;21.390;2022-11-15T08:39:57;100930.12;;;7.75;66.46
64086;BME280;50333;47.436;21.390;2022-11-15T08:42:46;100928.63;;;7.91;65.73
64086;BME280;50333;47.436;21.390;2022-11-15T08:45:34;100935.63;;;7.90;65.88
64086;BME280;50333;47.436;21.390;2022-11-15T08:48:21;100937.53;;;7.95;65.98
64086;BME280;50333;47.436;21.390;2022-11-15T08:51:07;100928.69;;;8.08;65.39
64086;BME280;50333;47.436;21.390;2022-11-15T08:53:53;100931.13;;;8.26;64.74
64086;BME280;50333;47.436;21.390;2022-11-15T08:56:40;100923.25;;;8.21;64.97
64086;BME280;50333;47.436;21.390;2022-11-15T08:59:27;100929.38;;;8.15;65.06
64086;BME280;50333;47.436;21.390;2022-11-15T09:02:13;100927.94;;;7.96;66.06
64086;BME280;50333;47.436;21.390;2022-11-15T09:05:00;100918.69;;;8.28;65.26
64086;BME280;50333;47.436;21.390;2022-11-15T09:07:47;100924.25;;;8.20;66.12
64086;BME280;50333;47.436;21.390;2022-11-15T09:10:33;100930.78;;;8.35;65.61
64086;BME280;50333;47.436;21.390;2022-11-15T09:13:19;100935.31;;;8.68;64.43
64086;BME280;50333;47.436;21.390;2022-11-15T09:16:05;100929.00;;;8.81;63.89
64086;BME280;50333;47.436;21.390;2022-11-15T09:18:52;100926.91;;;8.95;64.38
64086;BME280;50333;47.436;21.390;2022-11-15T09:21:40;100925.50;;;8.87;64.33
64086;BME280;50333;47.436;21.390;2022-11-15T09:24:27;100933.22;;;8.99;64.97
64086;BME280;50333;47.436;21.390;2022-11-15T09:27:13;100928.16;;;9.26;64.51
64086;BME280;50333;47.436;21.390;2022-11-15T09:30:00;100930.44;;;9.56;63.58
64086;BME280;50333;47.436;21.390;2022-11-15T09:32:47;100920.94;;;9.67;63.53
64086;BME280;50333;47.436;21.390;2022-11-15T09:35:33;100907.50;;;10.19;62.29
64086;BME280;50333;47.436;21.390;2022-11-15T09:38:19;100897.25;;;10.62;60.17
64086;BME280;50333;47.436;21.390;2022-11-15T09:47:42;100882.84;;;11.24;58.68
64086;BME280;50333;47.436;21.390;2022-11-15T09:50:27;100880.09;;;11.41;58.67
64086;BME280;50333;47.436;21.390;2022-11-15T09:52:56;100872.16;;;11.84;57.71
64086;BME280;50333;47.436;21.390;2022-11-15T09:56:02;100872.78;;;12.06;56.82
64086;BME280;50333;47.436;21.390;2022-11-15T10:04:04;100868.50;;;11.80;57.31
64086;BME280;50333;47.436;21.390;2022-11-15T10:06:43;100857.00;;;11.76;57.14
64086;BME280;50333;47.436;21.390;2022-11-15T10:12:09;100853.28;;;11.66;57.92
64086;BME280;50333;47.436;21.390;2022-11-15T10:14:39;100850.94;;;11.65;57.56
64086;BME280;50333;47.436;21.390;2022-11-15T10:17:30;100839.72;;;11.69;57.43
64086;BME280;50333;47.436;21.390;2022-11-15T10:22:53;100839.44;;;11.61;58.08
64086;BME280;50333;47.436;21.390;2022-11-15T10:25:32;100834.34;;;11.33;59.22
64086;BME280;50333;47.436;21.390;2022-11-15T10:28:38;100833.66;;;11.54;58.97
64086;BME280;50333;47.436;21.390;2022-11-15T10:31:24;100829.22;;;11.54;58.83
64086;BME280;50333;47.436;21.390;2022-11-15T10:34:13;100826.41;;;11.66;59.39
64086;BME280;50333;47.436;21.390;2022-11-15T10:37:02;100819.94;;;11.89;58.15
64086;BME280;50333;47.436;21.390;2022-11-15T10:39:30;100820.50;;;12.06;58.12
64086;BME280;50333;47.436;21.390;2022-11-15T10:42:18;100820.50;;;11.96;58.09
64086;BME280;50333;47.436;21.390;2022-11-15T10:45:30;100805.91;;;12.21;57.40
64086;BME280;50333;47.436;21.390;2022-11-15T10:48:21;100799.59;;;12.06;58.30
64086;BME280;50333;47.436;21.390;2022-11-15T10:50:52;100794.66;;;12.20;58.20
64086;BME280;50333;47.436;21.390;2022-11-15T10:53:31;100788.12;;;12.13;58.15
64086;BME280;50333;47.436;21.390;2022-11-15T10:56:04;100795.34;;;11.80;59.53
64086;BME280;50333;47.436;21.390;2022-11-15T10:58:38;100792.28;;;11.98;59.17
64086;BME280;50333;47.436;21.390;2022-11-15T11:03:39;100790.22;;;12.05;59.30
64086;BME280;50333;47.436;21.390;2022-11-15T11:06:11;100787.06;;;11.98;59.58
64086;BME280;50333;47.436;21.390;2022-11-15T11:08:40;100782.81;;;11.87;59.99
64086;BME280;50333;47.436;21.390;2022-11-15T11:11:07;100778.41;;;11.93;59.79
64086;BME280;50333;47.436;21.390;2022-11-15T11:13:38;100778.16;;;11.94;59.67
64086;BME280;50333;47.436;21.390;2022-11-15T11:16:23;100765.63;;;12.12;59.84
64086;BME280;50333;47.436;21.390;2022-11-15T11:25:03;100754.66;;;12.04;59.66
64086;BME280;50333;47.436;21.390;2022-11-15T11:27:47;100748.63;;;11.88;60.58
64086;BME280;50333;47.436;21.390;2022-11-15T11:30:24;100757.22;;;11.89;60.97
64086;BME280;50333;47.436;21.390;2022-11-15T11:33:42;100750.22;;;12.05;60.73
64086;BME280;50333;47.436;21.390;2022-11-15T11:38:52;100739.25;;;12.13;60.37
64086;BME280;50333;47.436;21.390;2022-11-15T11:44:29;100735.84;;;12.02;60.97
64086;BME280;50333;47.436;21.390;2022-11-15T11:47:31;100733.50;;;12.06;60.93
64086;BME280;50333;47.436;21.390;2022-11-15T11:50:21;100717.56;;;11.97;60.97
64086;BME280;50333;47.436;21.390;2022-11-15T11:53:13;100716.25;;;12.10;60.88
64086;BME280;50333;47.436;21.390;2022-11-15T11:55:52;100717.56;;;12.13;60.71
64086;BME280;50333;47.436;21.390;2022-11-15T11:58:29;100718.06;;;11.94;61.34
64086;BME280;50333;47.436;21.390;2022-11-15T12:06:48;100705.22;;;11.82;62.11
64086;BME280;50333;47.436;21.390;2022-11-15T12:09:38;100694.25;;;11.85;61.97
64086;BME280;50333;47.436;21.390;2022-11-15T12:12:18;100698.16;;;11.62;62.87
64086;BME280;50333;47.436;21.390;2022-11-15T12:15:12;100695.06;;;11.91;62.12
64086;BME280;50333;47.436;21.390;2022-11-15T12:18:02;100691.41;;;11.87;62.23
64086;BME280;50333;47.436;21.390;2022-11-15T12:20:58;100689.06;;;11.96;61.86
64086;BME280;50333;47.436;21.390;2022-11-15T12:23:54;100683.84;;;11.96;61.95
64086;BME280;50333;47.436;21.390;2022-11-15T12:27:40;100688.81;;;12.07;61.83
64086;BME280;50333;47.436;21.390;2022-11-15T12:30:56;100683.84;;;12.21;61.23
64086;BME280;50333;47.436;21.390;2022-11-15T12:33:40;100691.94;;;12.15;61.11
64086;BME280;50333;47.436;21.390;2022-11-15T12:43:55;100669.50;;;11.93;62.24
64086;BME280;50333;47.436;21.390;2022-11-15T12:49:00;100659.53;;;12.16;62.09
64086;BME280;50333;47.436;21.390;2022-11-15T13:02:40;100647.00;;;12.13;62.46
64086;BME280;50333;47.436;21.390;2022-11-15T13:17:58;100656.12;;;11.84;63.18
64086;BME280;50333;47.436;21.390;2022-11-15T13:20:47;100659.03;;;12.03;62.82
64086;BME280;50333;47.436;21.390;2022-11-15T13:23:16;100652.72;;;11.68;63.71
64086;BME280;50333;47.436;21.390;2022-11-15T13:31:34;100648.56;;;11.88;63.54
64086;BME280;50333;47.436;21.390;2022-11-15T13:37:30;100646.97;;;11.82;64.71
64086;BME280;50333;47.436;21.390;2022-11-15T13:40:28;100639.41;;;11.80;64.87
64086;BME280;50333;47.436;21.390;2022-11-15T13:43:29;100638.88;;;11.68;65.08
64086;BME280;50333;47.436;21.390;2022-11-15T13:46:23;100627.16;;;11.76;65.06
64086;BME280;50333;47.436;21.390;2022-11-15T13:49:01;100631.56;;;11.85;65.65
64086;BME280;50333;47.436;21.390;2022-11-15T13:51:33;100625.03;;;11.62;66.83
64086;BME280;50333;47.436;21.390;2022-11-15T13:56:53;100615.12;;;11.54;68.34
64086;BME280;50333;47.436;21.390;2022-11-15T13:59:24;100612.47;;;11.18;70.97
64086;BME280;50333;47.436;21.390;2022-11-15T14:02:16;100612.47;;;11.23;70.98
64086;BME280;50333;47.436;21.390;2022-11-15T14:04:51;100606.25;;;11.65;69.13
64086;BME280;50333;47.436;21.390;2022-11-15T14:07:22;100607.25;;;11.18;70.86
64086;BME280;50333;47.436;21.390;2022-11-15T14:09:51;100599.97;;;11.51;69.90
64086;BME280;50333;47.436;21.390;2022-11-15T14:15:50;100599.69;;;11.47;70.15
64086;BME280;50333;47.436;21.390;2022-11-15T14:18:41;100601.28;;;11.54;69.98
64086;BME280;50333;47.436;21.390;2022-11-15T14:21:30;100597.88;;;11.43;70.34
64086;BME280;50333;47.436;21.390;2022-11-15T14:24:39;100587.69;;;11.26;70.77
64086;BME280;50333;47.436;21.390;2022-11-15T14:31:29;100587.19;;;11.39;70.79
64086;BME280;50333;47.436;21.390;2022-11-15T14:34:59;100578.78;;;11.11;72.28
64086;BME280;50333;47.436;21.390;2022-11-15T14:37:46;100571.22;;;11.05;72.84
64086;BME280;50333;47.436;21.390;2022-11-15T14:40:34;100570.44;;;11.25;71.78
64086;BME280;50333;47.436;21.390;2022-11-15T14:43:27;100557.91;;;11.01;73.45
64086;BME280;50333;47.436;21.390;2022-11-15T14:45:55;100551.34;;;10.93;73.69
64086;BME280;50333;47.436;21.390;2022-11-15T14:48:43;100546.63;;;10.70;74.57
64086;BME280;50333;47.436;21.390;2022-11-15T14:51:14;100551.38;;;10.99;73.42
64086;BME280;50333;47.436;21.390;2022-11-15T14:54:02;100554.78;;;11.09;72.97
64086;BME280;50333;47.436;21.390;2022-11-15T14:56:30;100546.44;;;11.28;71.99
64086;BME280;50333;47.436;21.390;2022-11-15T14:58:59;100538.06;;;11.05;72.39
64086;BME280;50333;47.436;21.390;2022-11-15T15:01:27;100541.19;;;10.82;73.40
64086;BME280;50333;47.436;21.390;2022-11-15T15:03:56;100546.31;;;10.61;74.66
64086;BME280;50333;47.436;21.390;2022-11-15T15:06:25;100531.03;;;11.01;73.15
64086;BME280;50333;47.436;21.390;2022-11-15T15:08:55;100530.44;;;10.68;74.43
64086;BME280;50333;47.436;21.390;2022-11-15T15:11:43;100538.53;;;10.66;75.45
64086;BME280;50333;47.436;21.390;2022-11-15T15:14:32;100543.78;;;10.87;74.57
64086;BME280;50333;47.436;21.390;2022-11-15T15:17:20;100526.16;;;10.41;76.79
64086;BME280;50333;47.436;21.390;2022-11-15T15:20:08;100527.03;;;10.62;76.22
64086;BME280;50333;47.436;21.390;2022-11-15T15:22:37;100531.50;;;10.77;75.55
64086;BME280;50333;47.436;21.390;2022-11-15T15:25:30;100529.38;;;10.69;76.43
64086;BME280;50333;47.436;21.390;2022-11-15T15:28:01;100527.03;;;10.62;76.84
64086;BME280;50333;47.436;21.390;2022-11-15T15:30:30;100520.84;;;10.89;75.39
64086;BME280;50333;47.436;21.390;2022-11-15T15:32:58;100511.09;;;10.59;75.65
64086;BME280;50333;47.436;21.390;2022-11-15T15:35:30;100507.44;;;10.49;77.18
64086;BME280;50333;47.436;21.390;2022-11-15T15:38:19;100510.81;;;10.45;78.03
64086;BME280;50333;47.436;21.390;2022-11-15T15:40:47;100520.03;;;10.88;75.57
64086;BME280;50333;47.436;21.390;2022-11-15T15:43:18;100512.22;;;10.99;74.66
64086;BME280;50333;47.436;21.390;2022-11-15T15:45:47;100514.34;;;11.17;73.79
64086;BME280;50333;47.436;21.390;2022-11-15T15:48:18;100503.66;;;11.08;73.81
64086;BME280;50333;47.436;21.390;2022-11-15T15:50:46;100511.97;;;10.95;74.49
64086;BME280;50333;47.436;21.390;2022-11-15T15:53:15;100511.22;;;11.25;73.47
64086;BME280;50333;47.436;21.390;2022-11-15T15:56:03;100508.59;;;10.94;74.16
64086;BME280;50333;47.436;21.390;2022-11-15T15:58:31;100517.44;;;10.73;75.29
64086;BME280;50333;47.436;21.390;2022-11-15T16:01:00;100510.16;;;10.85;74.99
64086;BME280;50333;47.436;21.390;2022-11-15T16:03:28;100499.19;;;11.04;73.86
64086;BME280;50333;47.436;21.390;2022-11-15T16:05:56;100502.59;;;10.94;73.94
64086;BME280;50333;47.436;21.390;2022-11-15T16:08:24;100514.84;;;10.78;74.83
64086;BME280;50333;47.436;21.390;2022-11-15T16:11:04;100508.03;;;10.77;74.67
64086;BME280;50333;47.436;21.390;2022-11-15T16:13:33;100502.06;;;10.92;74.36
64086;BME280;50333;47.436;21.390;2022-11-15T16:16:01;100499.97;;;10.84;74.37
64086;BME280;50333;47.436;21.390;2022-11-15T16:18:29;100499.19;;;10.93;74.07
64086;BME280;50333;47.436;21.390;2022-11-15T16:20:57;100497.59;;;10.77;74.47
64086;BME280;50333;47.436;21.390;2022-11-15T16:23:25;100488.69;;;10.57;75.31
64086;BME280;50333;47.436;21.390;2022-11-15T16:25:54;100494.97;;;10.72;75.37
64086;BME280;50333;47.436;21.390;2022-11-15T16:28:25;100486.41;;;10.77;74.91
64086;BME280;50333;47.436;21.390;2022-11-15T16:31:07;100487.47;;;11.01;74.24
64086;BME280;50333;47.436;21.390;2022-11-15T16:33:35;100490.09;;;11.06;73.86
64086;BME280;50333;47.436;21.390;2022-11-15T16:36:06;100476.50;;;10.99;73.60
64086;BME280;50333;47.436;21.390;2022-11-15T16:38:41;100469.97;;;11.02;73.59
64086;BME280;50333;47.436;21.390;2022-11-15T16:41:09;100477.03;;;10.96;73.51